| time (UTC) | temp C | wind direction | speed KPH | gust KPH | rain 1hr cm | rain 24hr cm | rain mn cm | humidity % | barometer mb |
| 20260905214542 | 22 | 79 | 9.7 | 16.1 | 0.00 | 0.00 | 0.00 | 67 | |
| 20260905213540 | 22 | 119 | 3.2 | 6.4 | 0.00 | 0.00 | 0.00 | 67 | |
| 20260905212538 | 22 | 90 | 4.8 | 8.0 | 0.00 | 0.00 | 0.00 | 66 | |
| 20260905211536 | 23 | 253 | 3.2 | 9.7 | 0.00 | 0.00 | 0.00 | 66 | |
| 20260905210554 | 23 | 15 | 3.2 | 6.4 | 0.00 | 0.00 | 0.00 | 63 | |
| 20260905205532 | 23 | 325 | 6.4 | 11.3 | 0.00 | 0.00 | 0.00 | 57 | |
| 20260905204530 | 25 | 317 | 4.8 | 12.9 | 0.00 | 0.00 | 0.00 | 48 | |
| 20260905203528 | 26 | 59 | 6.4 | 11.3 | 0.00 | 0.00 | 0.00 | 47 | |
| 20260905202546 | 26 | 96 | 3.2 | 4.8 | 0.00 | 0.00 | 0.00 | 46 | |
| 20260905201524 | 26 | 41 | 3.2 | 6.4 | 0.00 | 0.00 | 0.00 | 48 | |
| 20260905200522 | 26 | 158 | 6.4 | 11.3 | 0.00 | 0.00 | 0.00 | 52 | |
| 20260905195520 | 26 | 24 | 8.0 | 14.5 | 0.00 | 0.00 | 0.00 | 50 | |
| 20260905194518 | 27 | 266 | 8.0 | 22.5 | 0.00 | 0.00 | 0.00 | 45 | |
| 20260905193518 | 27 | 304 | 19.3 | 37.0 | 0.00 | 0.00 | 0.00 | 43 | |
| 20260905192614 | 30 | 215 | 17.7 | 37.0 | 0.00 | 0.00 | 0.00 | 29 | |
| 20260905191612 | 29 | 209 | 6.4 | 16.1 | 0.00 | 0.00 | 0.00 | 29 | |
| 20260905190611 | 27 | 242 | 6.4 | 16.1 | 0.00 | 0.00 | 0.00 | 37 | |
| 20260905185608 | 23 | 286 | 8.0 | 12.9 | 0.00 | 0.00 | 0.00 | 67 | |
| 20260905184606 | 23 | 66 | 6.4 | 12.9 | 0.00 | 0.00 | 0.00 | 66 | |
| 20260905183604 | 23 | 32 | 1.6 | 6.4 | 0.00 | 0.00 | 0.00 | 66 | |
| 20260905182602 | 23 | 68 | 0.0 | 3.2 | 0.00 | 0.00 | 0.00 | 66 | |
| 20260905181600 | 23 | 16 | 1.6 | 6.4 | 0.00 | 0.00 | 0.00 | 65 | |
| 20260905180559 | 23 | 45 | 3.2 | 3.2 | 0.00 | 0.00 | 0.00 | 64 | |
| 20260905175557 | 25 | 315 | 1.6 | 4.8 | 0.00 | 0.00 | 0.00 | 62 | |
| 20260905174554 | 25 | 315 | 1.6 | 4.8 | 0.00 | 0.00 | 0.00 | 62 | |
| 20260905173552 | 25 | 343 | 1.6 | 3.2 | 0.00 | 0.00 | 0.00 | 62 | |
| 20260905172611 | 25 | 40 | 3.2 | 6.4 | 0.00 | 0.00 | 0.00 | 61 | |
| 20260905171548 | 25 | 36 | 3.2 | 4.8 | 0.00 | 0.00 | 0.00 | 61 | |
| 20260905170546 | 25 | 30 | 3.2 | 6.4 | 0.00 | 0.00 | 0.00 | 60 | |
| 20260905165604 | 25 | 38 | 3.2 | 6.4 | 0.00 | 0.00 | 0.00 | 60 | |
| 20260905164542 | 25 | 37 | 6.4 | 8.0 | 0.00 | 0.00 | 0.00 | 59 | |
| 20260905163540 | 25 | 14 | 3.2 | 6.4 | 0.00 | 0.00 | 0.00 | 60 | |
| 20260905162539 | 25 | 33 | 9.7 | 14.5 | 0.00 | 0.00 | 0.00 | 59 | |
| 20260905161558 | 25 | 351 | 4.8 | 6.4 | 0.00 | 0.00 | 0.00 | 59 | |
| 20260905160554 | 26 | 0 | 8.0 | 11.3 | 0.00 | 0.00 | 0.00 | 55 | |
| 20260905155532 | 26 | 296 | 4.8 | 9.7 | 0.00 | 0.00 | 0.00 | 54 | |
| 20260905154531 | 26 | 37 | 4.8 | 8.0 | 0.00 | 0.00 | 0.00 | 53 | |
| 20260905153530 | 27 | 30 | 4.8 | 11.3 | 0.00 | 0.00 | 0.00 | 51 | |
| 20260905152528 | 27 | 331 | 6.4 | 11.3 | 0.00 | 0.00 | 0.00 | 50 | |
| 20260905151524 | 28 | 18 | 3.2 | 6.4 | 0.00 | 0.00 | 0.00 | 50 | |
| 20260905150523 | 28 | 84 | 4.8 | 8.0 | 0.00 | 0.00 | 0.00 | 49 | |
| 20260905145541 | 28 | 356 | 3.2 | 6.4 | 0.00 | 0.00 | 0.00 | 49 | |
| 20260905144518 | 28 | 345 | 4.8 | 11.3 | 0.00 | 0.00 | 0.00 | 48 | |
| 20260905143537 | 28 | 283 | 3.2 | 6.4 | 0.00 | 0.00 | 0.00 | 47 | |
| 20260905142535 | 28 | 40 | 6.4 | 11.3 | 0.00 | 0.00 | 0.00 | 46 | |
| 20260905141613 | 28 | 17 | 4.8 | 8.0 | 0.00 | 0.00 | 0.00 | 46 | |
| 20260905140611 | 28 | 45 | 6.4 | 12.9 | 0.00 | 0.00 | 0.00 | 45 | |
| 20260905135609 | 28 | 66 | 4.8 | 9.7 | 0.00 | 0.00 | 0.00 | 45 | |
| 20260905134627 | 27 | 81 | 9.7 | 20.9 | 0.00 | 0.00 | 0.00 | 46 | |
| 20260905133625 | 28 | 46 | 9.7 | 14.5 | 0.00 | 0.00 | 0.00 | 46 | |
| 20260905132603 | 27 | 92 | 9.7 | 14.5 | 0.00 | 0.00 | 0.00 | 48 | |
| 20260905131601 | 27 | 62 | 12.9 | 20.9 | 0.00 | 0.00 | 0.00 | 46 | |
| 20260905130559 | 27 | 124 | 6.4 | 14.5 | 0.00 | 0.00 | 0.00 | 48 | |
| 20260905125557 | 27 | 60 | 8.0 | 12.9 | 0.00 | 0.00 | 0.00 | 48 | |
| 20260905124555 | 27 | 59 | 8.0 | 12.9 | 0.00 | 0.00 | 0.00 | 49 | |
| 20260905123553 | 27 | 77 | 6.4 | 16.1 | 0.00 | 0.00 | 0.00 | 49 | |
| 20260905122551 | 26 | 84 | 6.4 | 12.9 | 0.00 | 0.00 | 0.00 | 51 | |
| 20260905121549 | 26 | 103 | 9.7 | 17.7 | 0.00 | 0.00 | 0.00 | 51 | |
| 20260905120547 | 26 | 90 | 6.4 | 9.7 | 0.00 | 0.00 | 0.00 | 51 | |
| 20260905115545 | 26 | 103 | 4.8 | 12.9 | 0.00 | 0.00 | 0.00 | 52 | |
| 20260905114543 | 26 | 91 | 6.4 | 12.9 | 0.00 | 0.00 | 0.00 | 53 | |
| 20260905113541 | 26 | 74 | 6.4 | 12.9 | 0.00 | 0.00 | 0.00 | 52 | |
| 20260905112559 | 26 | 102 | 6.4 | 12.9 | 0.00 | 0.00 | 0.00 | 54 | |
| 20260905111537 | 25 | 139 | 6.4 | 16.1 | 0.00 | 0.00 | 0.00 | 58 | |
| 20260905110557 | 25 | 63 | 9.7 | 16.1 | 0.00 | 0.00 | 0.00 | 61 | |
| 20260905105533 | 23 | 52 | 6.4 | 14.5 | 0.00 | 0.00 | 0.00 | 64 | |
| 20260905104531 | 23 | 101 | 8.0 | 17.7 | 0.00 | 0.00 | 0.00 | 65 | |
| 20260905103529 | 23 | 55 | 9.7 | 17.7 | 0.00 | 0.00 | 0.00 | 67 | |
| 20260905102549 | 22 | 44 | 9.7 | 14.5 | 0.00 | 0.00 | 0.00 | 67 | |
| 20260905101526 | 22 | 92 | 4.8 | 9.7 | 0.00 | 0.00 | 0.00 | 69 | |
| 20260905100525 | 22 | 68 | 6.4 | 11.3 | 0.00 | 0.00 | 0.00 | 69 | |
| 20260905095522 | 22 | 62 | 4.8 | 11.3 | 0.00 | 0.00 | 0.00 | 69 | |
| 20260905094519 | 22 | 60 | 6.4 | 12.9 | 0.00 | 0.00 | 0.00 | 71 | |
| 20260905093518 | 21 | 65 | 4.8 | 9.7 | 0.00 | 0.00 | 0.00 | 74 | |
| 20260905092515 | 21 | 80 | 6.4 | 14.5 | 0.00 | 0.00 | 0.00 | 74 | |
| 20260905091614 | 21 | 75 | 4.8 | 9.7 | 0.00 | 0.00 | 0.00 | 74 | |
| 20260905090632 | 21 | 83 | 6.4 | 12.9 | 0.00 | 0.00 | 0.00 | 76 | |
| 20260905085610 | 21 | 58 | 6.4 | 11.3 | 0.00 | 0.00 | 0.00 | 76 | |
| 20260905084608 | 21 | 47 | 8.0 | 12.9 | 0.00 | 0.00 | 0.00 | 77 | |
| 20260905083606 | 21 | 88 | 4.8 | 9.7 | 0.00 | 0.00 | 0.00 | 78 | |
| 20260905082604 | 20 | 95 | 4.8 | 12.9 | 0.00 | 0.00 | 0.00 | 78 | |
| 20260905081602 | 20 | 67 | 3.2 | 6.4 | 0.00 | 0.00 | 0.00 | 79 | |
| 20260905080600 | 20 | 90 | 3.2 | 4.8 | 0.00 | 0.00 | 0.00 | 79 | |
| 20260905075558 | 20 | 95 | 3.2 | 4.8 | 0.00 | 0.00 | 0.00 | 79 | |
| 20260905074556 | 20 | 57 | 3.2 | 6.4 | 0.00 | 0.00 | 0.00 | 79 | |
| 20260905073554 | 20 | 53 | 4.8 | 8.0 | 0.00 | 0.00 | 0.00 | 79 | |
| 20260905072552 | 20 | 57 | 4.8 | 8.0 | 0.00 | 0.00 | 0.00 | 80 | |
| 20260905071550 | 20 | 62 | 8.0 | 12.9 | 0.00 | 0.00 | 0.00 | 81 | |
| 20260905070608 | 20 | 50 | 3.2 | 6.4 | 0.00 | 0.00 | 0.00 | 82 | |
| 20260905065546 | 20 | 0.0 | 1.6 | 0.00 | 0.00 | 0.00 | 82 | ||
| 20260905064544 | 20 | 90 | 1.6 | 6.4 | 0.00 | 0.00 | 0.00 | 83 | |
| 20260905063602 | 20 | 85 | 1.6 | 6.4 | 0.00 | 0.00 | 0.00 | 83 | |
| 20260905062540 | 20 | 0.0 | 1.6 | 0.00 | 0.00 | 0.00 | 83 | ||
| 20260905061558 | 20 | 86 | 1.6 | 3.2 | 0.00 | 0.00 | 0.00 | 83 | |
| 20260905060536 | 20 | 90 | 1.6 | 3.2 | 0.00 | 0.00 | 0.00 | 83 | |
| 20260905055534 | 20 | 90 | 1.6 | 4.8 | 0.00 | 0.00 | 0.00 | 83 | |
| 20260905054532 | 20 | 94 | 3.2 | 6.4 | 0.00 | 0.00 | 0.00 | 83 | |
| 20260905053530 | 20 | 90 | 1.6 | 4.8 | 0.00 | 0.00 | 0.00 | 83 | |
| 20260905052528 | 20 | 71 | 3.2 | 4.8 | 0.00 | 0.00 | 0.00 | 83 | |
| 20260905051527 | 20 | 81 | 3.2 | 4.8 | 0.00 | 0.00 | 0.00 | 83 | |
| 20260905050524 | 20 | 98 | 1.6 | 6.4 | 0.00 | 0.00 | 0.00 | 83 | |
| 20260905045542 | 20 | 85 | 1.6 | 6.4 | 0.00 | 0.00 | 0.00 | 83 | |
| 20260905044520 | 20 | 90 | 1.6 | 4.8 | 0.00 | 0.00 | 0.00 | 83 | |
| 20260905043519 | 20 | 90 | 1.6 | 4.8 | 0.00 | 0.00 | 0.00 | 83 | |
| 20260905042516 | 20 | 94 | 1.6 | 6.4 | 0.00 | 0.00 | 0.00 | 83 | |
| 20260905041614 | 20 | 90 | 3.2 | 6.4 | 0.00 | 0.00 | 0.00 | 83 | |
| 20260905040612 | 20 | 90 | 1.6 | 3.2 | 0.00 | 0.00 | 0.00 | 83 | |
| 20260905035610 | 20 | 88 | 1.6 | 4.8 | 0.00 | 0.00 | 0.00 | 83 | |
| 20260905034608 | 20 | 97 | 3.2 | 6.4 | 0.00 | 0.00 | 0.00 | 83 | |
| 20260905033606 | 20 | 95 | 3.2 | 6.4 | 0.00 | 0.00 | 0.00 | 83 | |
| 20260905032604 | 20 | 64 | 1.6 | 4.8 | 0.00 | 0.00 | 0.00 | 83 | |
| 20260905031602 | 20 | 80 | 1.6 | 4.8 | 0.00 | 0.00 | 0.00 | 83 | |
| 20260905030620 | 20 | 75 | 3.2 | 6.4 | 0.00 | 0.00 | 0.00 | 83 | |
| 20260905025558 | 20 | 65 | 1.6 | 6.4 | 0.00 | 0.00 | 0.00 | 83 | |
| 20260905024556 | 20 | 90 | 1.6 | 4.8 | 0.00 | 0.00 | 0.00 | 83 | |
| 20260905023554 | 20 | 90 | 0.0 | 3.2 | 0.00 | 0.00 | 0.00 | 84 | |
| 20260905022552 | 20 | 90 | 0.0 | 3.2 | 0.00 | 0.00 | 0.00 | 84 | |
| 20260905021650 | 20 | 135 | 0.0 | 3.2 | 0.00 | 0.00 | 0.00 | 84 | |
| 20260905020608 | 20 | 90 | 3.2 | 3.2 | 0.00 | 0.00 | 0.00 | 84 | |
| 20260905015546 | 20 | 76 | 1.6 | 4.8 | 0.00 | 0.00 | 0.00 | 84 | |
| 20260905014544 | 20 | 45 | 1.6 | 4.8 | 0.00 | 0.00 | 0.00 | 84 | |
| 20260905013604 | 20 | 45 | 0.0 | 3.2 | 0.00 | 0.00 | 0.00 | 84 | |
| 20260905012540 | 20 | 49 | 1.6 | 3.2 | 0.00 | 0.00 | 0.00 | 84 | |
| 20260905011538 | 20 | 45 | 3.2 | 4.8 | 0.00 | 0.00 | 0.00 | 84 | |
| 20260905010537 | 20 | 51 | 3.2 | 6.4 | 0.00 | 0.00 | 0.00 | 83 | |
| 20260905005534 | 20 | 43 | 6.4 | 9.7 | 0.00 | 0.00 | 0.00 | 82 | |
| 20260905004533 | 20 | 36 | 4.8 | 8.0 | 0.00 | 0.00 | 0.00 | 82 | |
| 20260905003550 | 20 | 79 | 1.6 | 4.8 | 0.00 | 0.00 | 0.00 | 82 | |
| 20260905002528 | 20 | 44 | 3.2 | 6.4 | 0.00 | 0.00 | 0.00 | 81 | |
| 20260905001526 | 20 | 27 | 1.6 | 3.2 | 0.00 | 0.00 | 0.00 | 81 | |
| 20260905000525 | 20 | 0.0 | 3.2 | 0.00 | 0.00 | 0.00 | 80 | ||
| 20260904235523 | 20 | 52 | 0.0 | 3.2 | 0.00 | 0.00 | 0.00 | 80 | |
| 20260904234521 | 20 | 50 | 1.6 | 4.8 | 0.00 | 0.00 | 0.00 | 79 | |
| 20260904233518 | 20 | 53 | 3.2 | 6.4 | 0.00 | 0.00 | 0.00 | 77 | |
| 20260904232517 | 20 | 45 | 3.2 | 4.8 | 0.00 | 0.00 | 0.00 | 76 | |
| 20260904231615 | 20 | 45 | 0.0 | 3.2 | 0.00 | 0.00 | 0.00 | 76 | |
| 20260904230613 | 20 | 0.0 | 1.6 | 0.00 | 0.00 | 0.00 | 76 | ||
| 20260904225611 | 20 | 45 | 0.0 | 3.2 | 0.00 | 0.00 | 0.00 | 75 | |
| 20260904224609 | 20 | 90 | 0.0 | 3.2 | 0.00 | 0.00 | 0.00 | 76 | |
| 20260904223607 | 20 | 75 | 1.6 | 3.2 | 0.00 | 0.00 | 0.00 | 75 | |
| 20260904222626 | 21 | 73 | 0.0 | 3.2 | 0.00 | 0.00 | 0.00 | 75 | |
| 20260904221603 | 21 | 80 | 0.0 | 3.2 | 0.00 | 0.00 | 0.00 | 74 | |
| 20260904220601 | 21 | 90 | 3.2 | 6.4 | 0.00 | 0.00 | 0.00 | 74 | |
| 20260904215559 | 21 | 76 | 3.2 | 6.4 | 0.00 | 0.00 | 0.00 | 74 |